createdAt,value
2019-06-01T00:00:21.158Z,20.00
2019-06-01T00:02:56.020Z,19.90
2019-06-01T00:05:19.983Z,19.90
2019-06-01T00:07:48.993Z,19.90
2019-06-01T00:10:17.745Z,19.80
2019-06-01T00:12:47.632Z,19.70
2019-06-01T00:15:16.806Z,19.70
2019-06-01T00:17:48.002Z,19.70
2019-06-01T00:20:16.620Z,19.70
2019-06-01T00:22:45.520Z,19.60
2019-06-01T00:25:16.131Z,19.60
2019-06-01T00:27:46.731Z,19.60
2019-06-01T00:30:26.693Z,19.60
2019-06-01T00:32:47.213Z,19.50
2019-06-01T00:35:16.155Z,19.50
2019-06-01T00:37:45.638Z,19.50
2019-06-01T00:40:14.478Z,19.50
2019-06-01T00:42:44.029Z,19.50
2019-06-01T00:45:12.651Z,19.40
2019-06-01T00:47:42.672Z,19.40
2019-06-01T00:50:11.460Z,19.30
2019-06-01T00:52:40.173Z,19.30
2019-06-01T00:55:08.823Z,19.30
2019-06-01T00:57:37.609Z,19.20
2019-06-01T01:00:06.843Z,19.20
2019-06-01T01:02:35.910Z,19.10
2019-06-01T01:05:14.757Z,19.10
2019-06-01T01:07:44.546Z,19.00
2019-06-01T01:10:13.705Z,19.00
2019-06-01T01:13:00.319Z,19.00
2019-06-01T01:15:31.055Z,18.90
2019-06-01T01:18:00.102Z,18.90
2019-06-01T01:20:29.037Z,18.80
2019-06-01T01:22:57.617Z,18.80
2019-06-01T01:25:28.196Z,18.80
2019-06-01T01:27:59.319Z,18.70
2019-06-01T01:30:28.072Z,18.60
2019-06-01T01:32:59.083Z,18.60
2019-06-01T01:35:27.556Z,18.70
2019-06-01T01:37:58.160Z,18.60
2019-06-01T01:40:27.862Z,18.60
2019-06-01T01:42:56.625Z,18.50
2019-06-01T01:45:25.552Z,18.50
2019-06-01T01:47:55.078Z,18.50
2019-06-01T01:50:26.970Z,18.40
2019-06-01T01:52:56.824Z,18.40
2019-06-01T01:55:26.272Z,18.40
2019-06-01T01:57:55.489Z,18.40
2019-06-01T02:00:41.010Z,18.40
2019-06-01T02:03:13.306Z,18.30
2019-06-01T02:05:42.513Z,18.30
2019-06-01T02:08:11.591Z,18.30
2019-06-01T02:10:40.695Z,18.20
2019-06-01T02:13:09.483Z,18.20
2019-06-01T02:15:41.071Z,18.20
2019-06-01T02:18:09.930Z,18.20
2019-06-01T02:20:38.277Z,18.10
2019-06-01T02:23:06.979Z,18.10
2019-06-01T02:25:37.056Z,18.10
2019-06-01T02:28:06.216Z,18.10
2019-06-01T02:30:35.196Z,18.00
2019-06-01T02:33:04.819Z,18.00
2019-06-01T02:35:33.701Z,18.00
2019-06-01T02:38:03.169Z,17.90
2019-06-01T02:40:32.985Z,17.90
2019-06-01T02:43:03.691Z,17.90
2019-06-01T02:45:33.076Z,17.90
2019-06-01T02:48:03.668Z,17.90
2019-06-01T02:50:32.390Z,17.90
2019-06-01T02:53:01.801Z,17.90
2019-06-01T02:55:30.331Z,17.90
2019-06-01T02:58:00.335Z,17.80
2019-06-01T03:01:56.705Z,17.90
2019-06-01T03:04:15.717Z,17.80
2019-06-01T03:06:44.407Z,17.90
2019-06-01T03:09:13.292Z,17.80
2019-06-01T03:11:42.298Z,17.80
2019-06-01T03:14:12.297Z,17.70
2019-06-01T03:16:42.226Z,17.70
2019-06-01T03:19:12.765Z,17.70
2019-06-01T03:21:43.961Z,17.60
2019-06-01T03:24:13.265Z,17.60
2019-06-01T03:26:46.389Z,17.60
2019-06-01T03:29:19.248Z,17.70
2019-06-01T03:31:48.417Z,17.70
2019-06-01T03:34:17.024Z,17.70
2019-06-01T03:36:45.826Z,17.80
2019-06-01T03:39:14.503Z,17.80
2019-06-01T03:41:43.213Z,17.80
2019-06-01T03:44:13.026Z,17.80
2019-06-01T03:46:41.785Z,17.90
2019-06-01T03:49:11.612Z,17.90
2019-06-01T03:51:40.227Z,18.00
2019-06-01T03:54:10.123Z,18.00
2019-06-01T03:56:38.982Z,18.00
2019-06-01T03:59:09.328Z,18.10
2019-06-01T04:01:37.808Z,18.20
2019-06-01T04:04:07.152Z,18.30
2019-06-01T04:06:35.895Z,18.40
2019-06-01T04:09:07.744Z,18.40
2019-06-01T04:11:36.682Z,18.40
2019-06-01T04:14:05.734Z,18.50
2019-06-01T04:16:34.664Z,18.50
2019-06-01T04:19:06.000Z,18.50
2019-06-01T04:21:35.112Z,18.50
2019-06-01T04:24:04.053Z,18.50
2019-06-01T04:26:32.757Z,18.60
2019-06-01T04:29:04.877Z,18.50
2019-06-01T04:31:35.840Z,18.60
2019-06-01T04:34:04.587Z,18.60
2019-06-01T04:36:33.317Z,18.60
2019-06-01T04:39:03.565Z,18.60
2019-06-01T04:41:32.247Z,18.60
2019-06-01T04:44:02.010Z,18.70
2019-06-01T04:46:30.527Z,18.70
2019-06-01T04:48:59.038Z,18.80
2019-06-01T04:51:27.558Z,18.80
2019-06-01T04:53:56.602Z,18.90
2019-06-01T04:56:25.595Z,18.90
2019-06-01T04:58:54.400Z,19.00
2019-06-01T05:01:22.992Z,19.10
2019-06-01T05:03:51.665Z,19.20
2019-06-01T05:06:20.516Z,19.20
2019-06-01T05:08:49.073Z,19.20
2019-06-01T05:11:17.504Z,19.20
2019-06-01T05:13:46.400Z,19.20
2019-06-01T05:16:16.471Z,19.20
2019-06-01T05:18:45.055Z,19.20
2019-06-01T05:21:15.198Z,19.30
2019-06-01T05:23:43.898Z,19.30
2019-06-01T05:26:13.119Z,19.40
2019-06-01T05:28:41.897Z,19.50
2019-06-01T05:31:19.469Z,19.60
2019-06-01T05:33:45.420Z,19.70
2019-06-01T05:36:14.290Z,19.80
2019-06-01T05:38:42.859Z,19.90
2019-06-01T05:41:13.138Z,20.00
2019-06-01T05:43:41.717Z,20.10
2019-06-01T05:46:10.412Z,20.20
2019-06-01T05:48:38.888Z,20.30
2019-06-01T05:51:07.770Z,20.40
2019-06-01T05:53:36.161Z,20.50
2019-06-01T05:56:04.832Z,20.70
2019-06-01T05:58:33.264Z,20.80
2019-06-01T06:01:02.689Z,20.90
2019-06-01T06:03:39.893Z,21.00
2019-06-01T06:06:03.683Z,21.00
2019-06-01T06:08:32.616Z,21.10
2019-06-01T06:11:03.383Z,21.10
2019-06-01T06:13:31.766Z,21.10
2019-06-01T06:16:00.476Z,21.20
2019-06-01T06:18:29.499Z,21.20
2019-06-01T06:20:57.990Z,21.20
2019-06-01T06:23:27.684Z,21.20
2019-06-01T06:25:56.514Z,21.20
2019-06-01T06:28:26.788Z,21.20
2019-06-01T06:30:55.365Z,21.20
2019-06-01T06:33:25.919Z,21.10
2019-06-01T06:35:56.320Z,21.20
2019-06-01T06:38:24.662Z,21.20
2019-06-01T06:40:53.247Z,21.10
2019-06-01T06:43:28.875Z,21.20
2019-06-01T06:45:53.043Z,21.30
2019-06-01T06:48:23.345Z,21.50
2019-06-01T06:50:51.919Z,21.50
2019-06-01T06:53:29.654Z,21.60
2019-06-01T06:55:51.193Z,21.60
2019-06-01T06:58:21.034Z,21.60
2019-06-01T07:00:50.062Z,21.50
2019-06-01T07:03:18.918Z,21.50
2019-06-01T07:05:47.493Z,21.70
2019-06-01T07:08:16.266Z,21.90
2019-06-01T07:10:45.466Z,21.90
2019-06-01T07:13:14.393Z,22.00
2019-06-01T07:15:43.435Z,22.00
2019-06-01T07:20:43.594Z,22.00
2019-06-01T07:23:12.213Z,22.20
2019-06-01T07:25:41.900Z,22.50
2019-06-01T07:28:12.372Z,22.70
2019-06-01T07:30:50.380Z,22.90
2019-06-01T07:33:11.887Z,22.80
2019-06-01T07:35:42.438Z,22.90
2019-06-01T07:38:12.930Z,23.10
2019-06-01T07:40:41.653Z,23.40
2019-06-01T07:43:10.029Z,23.50
2019-06-01T07:45:38.860Z,23.40
2019-06-01T07:48:07.394Z,23.10
2019-06-01T07:50:35.840Z,22.90
2019-06-01T07:53:04.466Z,23.00
2019-06-01T07:55:33.144Z,23.20
2019-06-01T07:58:02.729Z,23.60
2019-06-01T08:00:31.114Z,24.00
2019-06-01T08:02:59.779Z,24.60
2019-06-01T08:05:28.228Z,25.00
2019-06-01T08:07:56.893Z,25.20
2019-06-01T08:10:26.510Z,25.50
2019-06-01T08:12:56.726Z,25.40
2019-06-01T08:15:25.744Z,25.10
2019-06-01T08:17:54.774Z,25.20
2019-06-01T08:20:24.008Z,25.50
2019-06-01T08:22:52.722Z,26.00
2019-06-01T08:25:22.143Z,26.40
2019-06-01T08:27:52.931Z,26.70
2019-06-01T08:30:22.579Z,26.70
2019-06-01T08:32:51.428Z,26.80
2019-06-01T08:35:20.147Z,26.50
2019-06-01T08:37:50.500Z,26.30
2019-06-01T08:40:21.032Z,26.30
2019-06-01T08:42:49.466Z,26.30
2019-06-01T08:45:18.763Z,26.10
2019-06-01T08:47:47.570Z,25.90
2019-06-01T08:50:16.439Z,25.50
2019-06-01T08:52:44.819Z,25.50
2019-06-01T08:55:13.405Z,25.70
2019-06-01T08:57:42.334Z,26.00
2019-06-01T09:00:11.317Z,26.20
2019-06-01T09:02:39.973Z,26.40
2019-06-01T09:05:23.354Z,26.20
2019-06-01T09:07:39.260Z,26.30
2019-06-01T09:10:09.519Z,26.40
2019-06-01T09:12:38.128Z,26.70
2019-06-01T09:15:07.898Z,27.00
2019-06-01T09:17:36.391Z,27.10
2019-06-01T09:20:05.611Z,27.10
2019-06-01T09:22:35.736Z,27.10
2019-06-01T09:25:05.112Z,27.30
2019-06-01T09:27:33.934Z,27.60
2019-06-01T09:30:03.575Z,27.70
2019-06-01T09:32:32.339Z,27.50
2019-06-01T09:35:01.199Z,27.00
2019-06-01T09:37:30.558Z,27.00
2019-06-01T09:40:01.030Z,27.40
2019-06-01T09:42:31.168Z,27.60
2019-06-01T09:44:59.919Z,27.40
2019-06-01T09:47:29.073Z,27.60
2019-06-01T09:49:57.623Z,27.70
2019-06-01T09:52:27.301Z,27.80
2019-06-01T09:54:56.191Z,27.90
2019-06-01T09:57:24.939Z,28.00
2019-06-01T09:59:53.927Z,28.00
2019-06-01T10:02:22.609Z,28.10
2019-06-01T10:04:51.218Z,28.40
2019-06-01T10:07:19.744Z,28.90
2019-06-01T10:09:48.680Z,29.40
2019-06-01T10:12:17.483Z,29.70
2019-06-01T10:14:46.023Z,29.80
2019-06-01T10:17:15.206Z,29.90
2019-06-01T10:19:44.341Z,30.00
2019-06-01T10:22:13.154Z,30.60
2019-06-01T10:24:41.694Z,31.40
2019-06-01T10:27:10.711Z,31.90
2019-06-01T10:29:39.948Z,31.80
2019-06-01T10:32:10.898Z,32.30
2019-06-01T10:34:39.985Z,32.60
2019-06-01T10:37:08.665Z,33.20
2019-06-01T10:39:37.275Z,34.00
2019-06-01T10:42:07.472Z,34.30
2019-06-01T10:44:43.445Z,34.90
2019-06-01T10:47:09.133Z,35.00
2019-06-01T10:49:38.143Z,34.80
2019-06-01T10:52:06.772Z,35.20
2019-06-01T10:54:36.177Z,35.50
2019-06-01T10:57:04.820Z,36.20
2019-06-01T10:59:34.292Z,36.30
2019-06-01T11:02:03.068Z,35.50
2019-06-01T11:04:32.767Z,34.50
2019-06-01T11:07:02.401Z,33.90
2019-06-01T11:09:32.942Z,33.90
2019-06-01T11:12:02.384Z,33.40
2019-06-01T11:14:31.224Z,33.70
2019-06-01T11:17:00.116Z,34.40
2019-06-01T11:19:30.492Z,35.40
2019-06-01T11:21:59.302Z,36.00
2019-06-01T11:24:28.081Z,36.40
2019-06-01T11:26:56.784Z,36.70
2019-06-01T11:29:25.492Z,36.20
2019-06-01T11:31:54.732Z,35.50
2019-06-01T11:34:23.805Z,34.00
2019-06-01T11:37:04.590Z,33.80
2019-06-01T11:39:23.027Z,33.40
2019-06-01T11:41:51.603Z,32.60
2019-06-01T11:44:22.136Z,31.90
2019-06-01T11:46:51.923Z,31.90
2019-06-01T11:49:21.478Z,32.50
2019-06-01T11:51:50.142Z,33.20
2019-06-01T11:54:18.664Z,33.90
2019-06-01T11:56:47.117Z,34.50
2019-06-01T11:59:16.065Z,34.20
2019-06-01T12:01:45.873Z,34.50
2019-06-01T12:04:15.454Z,34.60
2019-06-01T12:06:44.289Z,34.90
2019-06-01T12:09:13.345Z,34.60
2019-06-01T12:11:42.341Z,35.00
2019-06-01T12:14:11.291Z,35.50
2019-06-01T12:16:40.412Z,35.70
2019-06-01T12:19:08.934Z,35.90
2019-06-01T12:21:38.828Z,35.70
2019-06-01T12:24:06.834Z,35.50
2019-06-01T12:26:35.622Z,35.70
2019-06-01T12:29:04.314Z,35.20
2019-06-01T12:31:33.340Z,34.60
2019-06-01T12:34:02.246Z,34.60
2019-06-01T12:36:32.161Z,34.10
2019-06-01T12:39:01.536Z,33.40
2019-06-01T12:41:30.462Z,32.60
2019-06-01T12:44:11.374Z,32.10
2019-06-01T12:46:42.240Z,31.80
2019-06-01T12:49:12.579Z,31.50
2019-06-01T12:51:42.528Z,31.60
2019-06-01T12:54:11.196Z,31.60
2019-06-01T12:56:40.698Z,31.50
2019-06-01T12:59:09.620Z,31.90
2019-06-01T13:01:38.470Z,32.30
2019-06-01T13:04:06.851Z,32.70
2019-06-01T13:06:35.530Z,32.80
2019-06-01T13:09:07.557Z,33.30
2019-06-01T13:11:36.403Z,33.60
2019-06-01T13:14:05.237Z,33.70
2019-06-01T13:16:33.751Z,33.40
2019-06-01T13:19:02.362Z,33.10
2019-06-01T13:21:31.037Z,32.90
2019-06-01T13:23:59.717Z,32.80
2019-06-01T13:26:28.451Z,32.80
2019-06-01T13:28:57.222Z,33.00
2019-06-01T13:31:25.580Z,33.20
2019-06-01T13:33:54.172Z,33.10
2019-06-01T13:36:22.852Z,33.20
2019-06-01T13:38:53.015Z,33.10
2019-06-01T13:41:21.779Z,33.00
2019-06-01T13:43:51.434Z,33.10
2019-06-01T13:46:20.021Z,32.80
2019-06-01T13:48:50.258Z,32.50
2019-06-01T13:51:20.799Z,32.20
2019-06-01T13:53:50.450Z,32.30
2019-06-01T13:56:19.413Z,32.60
2019-06-01T13:58:48.247Z,32.80
2019-06-01T14:01:16.900Z,32.80
2019-06-01T14:03:45.464Z,32.70
2019-06-01T14:06:14.486Z,32.50
2019-06-01T14:08:43.460Z,32.40
2019-06-01T14:11:12.455Z,32.50
2019-06-01T14:13:40.873Z,32.80
2019-06-01T14:16:09.518Z,32.60
2019-06-01T14:18:38.503Z,32.80
2019-06-01T14:21:07.217Z,33.00
2019-06-01T14:23:35.886Z,33.10
2019-06-01T14:26:05.178Z,33.20
2019-06-01T14:28:33.852Z,33.40
2019-06-01T14:31:02.590Z,33.30
2019-06-01T14:33:31.277Z,33.20
2019-06-01T14:35:59.615Z,33.20
2019-06-01T14:38:45.636Z,33.20
2019-06-01T14:41:00.087Z,33.30
2019-06-01T14:43:29.077Z,33.20
2019-06-01T14:45:58.088Z,33.40
2019-06-01T14:48:26.751Z,33.60
2019-06-01T14:50:57.919Z,33.70
2019-06-01T14:53:28.427Z,33.60
2019-06-01T14:55:57.989Z,33.80
2019-06-01T14:58:27.100Z,33.70
2019-06-01T15:00:56.628Z,33.60
2019-06-01T15:03:25.156Z,33.30
2019-06-01T15:05:54.397Z,33.00
2019-06-01T15:08:23.127Z,32.90
2019-06-01T15:10:53.420Z,32.60
2019-06-01T15:13:22.810Z,32.60
2019-06-01T15:15:53.412Z,32.50
2019-06-01T15:18:21.619Z,32.40
2019-06-01T15:20:50.109Z,32.30
2019-06-01T15:23:19.099Z,32.50
2019-06-01T15:25:47.799Z,32.70
2019-06-01T15:28:16.637Z,32.90
2019-06-01T15:30:46.223Z,33.00
2019-06-01T15:33:14.873Z,33.10
2019-06-01T15:35:43.208Z,33.00
2019-06-01T15:38:11.856Z,32.90
2019-06-01T15:40:40.276Z,32.90
2019-06-01T15:43:10.430Z,32.80
2019-06-01T15:45:41.254Z,33.00
2019-06-01T15:48:09.699Z,32.90
2019-06-01T15:50:38.700Z,32.90
2019-06-01T15:53:09.329Z,33.00
2019-06-01T15:55:39.667Z,33.10
2019-06-01T15:58:08.111Z,33.30
2019-06-01T16:00:36.816Z,33.10
2019-06-01T16:03:05.459Z,33.00
2019-06-01T16:05:33.842Z,32.80
2019-06-01T16:08:03.684Z,32.60
2019-06-01T16:10:32.110Z,32.80
2019-06-01T16:13:04.303Z,32.90
2019-06-01T16:15:33.189Z,32.70
2019-06-01T16:18:02.424Z,32.90
2019-06-01T16:20:30.882Z,32.90
2019-06-01T16:23:00.303Z,33.00
2019-06-01T16:25:30.246Z,32.90
2019-06-01T16:27:58.830Z,32.90
2019-06-01T16:30:27.464Z,32.90
2019-06-01T16:32:56.468Z,33.00
2019-06-01T16:35:25.207Z,32.80
2019-06-01T16:37:54.928Z,32.80
2019-06-01T16:40:23.535Z,32.90
2019-06-01T16:42:51.925Z,32.90
2019-06-01T16:45:21.020Z,32.90
2019-06-01T16:47:49.847Z,33.00
2019-06-01T16:50:18.216Z,32.60
2019-06-01T16:52:46.683Z,32.50
2019-06-01T16:55:17.111Z,32.60
2019-06-01T16:57:47.970Z,32.70
2019-06-01T17:00:18.102Z,32.50
2019-06-01T17:02:46.433Z,32.20
2019-06-01T17:05:16.281Z,31.80
2019-06-01T17:07:45.207Z,31.80
2019-06-01T17:10:25.495Z,31.90
2019-06-01T17:12:45.727Z,32.00
2019-06-01T17:15:15.465Z,32.10
2019-06-01T17:17:43.949Z,32.00
2019-06-01T17:20:46.192Z,32.00
2019-06-01T17:23:27.448Z,32.00
2019-06-01T17:25:45.233Z,31.80
2019-06-01T17:28:13.897Z,31.60
2019-06-01T17:30:42.786Z,31.60
2019-06-01T17:33:11.336Z,31.50
2019-06-01T17:35:40.379Z,31.40
2019-06-01T17:38:09.271Z,31.30
2019-06-01T17:40:42.296Z,31.30
2019-06-01T17:43:08.929Z,31.30
2019-06-01T17:45:38.916Z,31.30
2019-06-01T17:48:23.470Z,31.20
2019-06-01T17:50:38.594Z,31.00
2019-06-01T17:53:08.701Z,31.00
2019-06-01T17:55:39.824Z,31.00
2019-06-01T17:58:11.770Z,31.00
2019-06-01T18:00:41.057Z,30.80
2019-06-01T18:03:10.246Z,30.90
2019-06-01T18:05:39.479Z,30.70
2019-06-01T18:08:08.261Z,30.70
2019-06-01T18:10:52.654Z,30.60
2019-06-01T18:13:10.165Z,30.50
2019-06-01T18:15:39.315Z,30.40
2019-06-01T18:18:08.774Z,30.40
2019-06-01T18:20:37.997Z,30.30
2019-06-01T18:23:08.330Z,30.20
2019-06-01T18:25:37.785Z,30.20
2019-06-01T18:28:13.225Z,30.20
2019-06-01T18:30:38.205Z,30.10
2019-06-01T18:33:07.233Z,30.10
2019-06-01T18:35:35.887Z,29.90
2019-06-01T18:38:05.773Z,29.80
2019-06-01T18:40:35.299Z,29.80
2019-06-01T18:43:10.066Z,29.70
2019-06-01T18:45:40.252Z,29.60
2019-06-01T18:48:10.179Z,29.50
2019-06-01T18:50:39.183Z,29.50
2019-06-01T18:53:08.185Z,29.30
2019-06-01T18:55:38.067Z,29.20
2019-06-01T18:58:10.257Z,29.20
2019-06-01T19:00:39.932Z,29.10
2019-06-01T19:03:09.268Z,29.00
2019-06-01T19:05:37.694Z,28.90
2019-06-01T19:08:07.201Z,28.80
2019-06-01T19:10:35.992Z,28.80
2019-06-01T19:13:05.650Z,28.70
2019-06-01T19:15:36.422Z,28.60
2019-06-01T19:18:06.335Z,28.50
2019-06-01T19:20:35.043Z,28.40
2019-06-01T19:23:04.069Z,28.30
2019-06-01T19:25:32.622Z,28.20
2019-06-01T19:28:02.903Z,28.20
2019-06-01T19:30:42.657Z,28.00
2019-06-01T19:33:15.342Z,28.00
2019-06-01T19:35:42.277Z,27.90
2019-06-01T19:38:11.428Z,27.80
2019-06-01T19:40:41.230Z,27.70
2019-06-01T19:43:11.514Z,27.60
2019-06-01T19:45:41.355Z,27.50
2019-06-01T19:48:11.875Z,27.50
2019-06-01T19:50:41.005Z,27.40
2019-06-01T19:53:10.608Z,27.30
2019-06-01T19:55:39.137Z,27.30
2019-06-01T19:58:10.012Z,27.20
2019-06-01T20:00:40.676Z,27.10
2019-06-01T20:03:10.265Z,26.90
2019-06-01T20:05:38.997Z,26.90
2019-06-01T20:08:07.634Z,26.80
2019-06-01T20:10:36.344Z,26.80
2019-06-01T20:13:05.050Z,26.70
2019-06-01T20:15:33.455Z,26.60
2019-06-01T20:18:02.615Z,26.60
2019-06-01T20:20:31.485Z,26.50
2019-06-01T20:23:00.110Z,26.40
2019-06-01T20:25:29.450Z,26.30
2019-06-01T20:27:58.092Z,26.20
2019-06-01T20:30:26.502Z,26.20
2019-06-01T20:32:55.152Z,26.10
2019-06-01T20:35:23.532Z,26.00
2019-06-01T20:37:52.537Z,25.90
2019-06-01T20:40:20.955Z,25.80
2019-06-01T20:42:49.924Z,25.80
2019-06-01T20:45:20.868Z,25.70
2019-06-01T20:47:50.353Z,25.70
2019-06-01T20:50:19.096Z,25.60
2019-06-01T20:52:47.712Z,25.60
2019-06-01T20:55:21.132Z,25.50
2019-06-01T20:57:49.959Z,25.40
2019-06-01T21:00:21.669Z,25.20
2019-06-01T21:02:51.985Z,25.20
2019-06-01T21:05:21.995Z,25.00
2019-06-01T21:07:50.684Z,24.90
2019-06-01T21:10:20.462Z,24.80
2019-06-01T21:12:49.491Z,24.70
2019-06-01T21:15:19.272Z,24.60
2019-06-01T21:17:50.182Z,24.40
2019-06-01T21:20:25.388Z,24.30
2019-06-01T21:22:49.825Z,24.40
2019-06-01T21:25:18.857Z,24.40
2019-06-01T21:27:47.764Z,24.40
2019-06-01T21:30:18.325Z,24.40
2019-06-01T21:32:46.978Z,24.30
2019-06-01T21:35:17.359Z,24.30
2019-06-01T21:37:45.994Z,24.30
2019-06-01T21:40:15.330Z,24.20
2019-06-01T21:43:00.459Z,24.20
2019-06-01T21:45:15.529Z,24.10
2019-06-01T21:47:44.319Z,23.90
2019-06-01T21:50:16.524Z,23.80
2019-06-01T21:52:46.643Z,23.60
2019-06-01T21:55:16.003Z,23.50
2019-06-01T21:57:45.011Z,23.40
2019-06-01T22:00:24.654Z,23.20
2019-06-01T22:02:55.193Z,23.20
2019-06-01T22:05:25.275Z,23.10
2019-06-01T22:07:54.093Z,23.10
2019-06-01T22:10:23.245Z,23.10
2019-06-01T22:12:51.793Z,23.10
2019-06-01T22:15:21.550Z,23.10
2019-06-01T22:17:50.082Z,23.00
2019-06-01T22:20:19.811Z,22.90
2019-06-01T22:22:48.386Z,22.90
2019-06-01T22:25:17.774Z,22.90
2019-06-01T22:27:46.965Z,22.90
2019-06-01T22:30:18.320Z,22.90
2019-06-01T22:32:47.436Z,22.90
2019-06-01T22:35:16.439Z,22.80
2019-06-01T22:37:45.158Z,22.80
2019-06-01T22:40:14.204Z,22.70
2019-06-01T22:42:43.105Z,22.70
2019-06-01T22:45:12.149Z,22.50
2019-06-01T22:47:40.810Z,22.30
2019-06-01T22:50:10.709Z,22.20
2019-06-01T22:52:40.277Z,22.10
2019-06-01T22:55:09.499Z,21.90
2019-06-01T22:57:38.249Z,21.80
2019-06-01T23:00:07.590Z,21.70
2019-06-01T23:02:36.582Z,21.60
2019-06-01T23:05:07.357Z,21.40
2019-06-01T23:07:36.394Z,21.30
2019-06-01T23:10:05.383Z,21.20
2019-06-01T23:12:34.109Z,21.20
2019-06-01T23:15:02.777Z,21.10
2019-06-01T23:17:32.019Z,20.90
2019-06-01T23:20:00.780Z,20.90
2019-06-01T23:22:30.736Z,20.90
2019-06-01T23:24:59.367Z,20.90
2019-06-01T23:27:28.323Z,20.90
2019-06-01T23:29:57.040Z,20.90
2019-06-01T23:32:26.505Z,20.90
2019-06-01T23:34:54.991Z,20.80
2019-06-01T23:37:24.645Z,20.70
2019-06-01T23:39:53.344Z,20.70
2019-06-01T23:42:22.545Z,20.70
2019-06-01T23:44:51.978Z,20.60
2019-06-01T23:47:20.608Z,20.60
2019-06-01T23:49:48.863Z,20.60
2019-06-01T23:52:17.489Z,20.50
2019-06-01T23:54:46.686Z,20.50
2019-06-01T23:57:15.170Z,20.50
2019-06-01T23:59:43.766Z,20.40
